sensor_id;sensor_type;location;lat;lon;timestamp;P1;durP1;ratioP1;P2;durP2;ratioP2
43841;SDS011;29495;49.970;20.842;2022-08-03T00:01:28;7.93;;;4.70;;
43841;SDS011;29495;49.970;20.842;2022-08-03T00:03:54;5.93;;;5.13;;
43841;SDS011;29495;49.970;20.842;2022-08-03T00:06:20;5.88;;;5.10;;
43841;SDS011;29495;49.970;20.842;2022-08-03T00:08:46;6.80;;;5.50;;
43841;SDS011;29495;49.970;20.842;2022-08-03T00:11:12;6.38;;;5.75;;
43841;SDS011;29495;49.970;20.842;2022-08-03T00:13:38;8.82;;;5.85;;
43841;SDS011;29495;49.970;20.842;2022-08-03T00:16:03;7.90;;;5.50;;
43841;SDS011;29495;49.970;20.842;2022-08-03T00:18:30;6.68;;;5.68;;
43841;SDS011;29495;49.970;20.842;2022-08-03T00:20:55;5.93;;;5.32;;
43841;SDS011;29495;49.970;20.842;2022-08-03T00:23:21;5.47;;;4.80;;
43841;SDS011;29495;49.970;20.842;2022-08-03T00:25:47;6.63;;;5.22;;
43841;SDS011;29495;49.970;20.842;2022-08-03T00:28:13;5.05;;;4.40;;
43841;SDS011;29495;49.970;20.842;2022-08-03T00:30:39;5.20;;;4.70;;
43841;SDS011;29495;49.970;20.842;2022-08-03T00:33:05;6.15;;;5.00;;
43841;SDS011;29495;49.970;20.842;2022-08-03T00:35:31;5.75;;;4.97;;
43841;SDS011;29495;49.970;20.842;2022-08-03T00:37:57;6.80;;;4.78;;
43841;SDS011;29495;49.970;20.842;2022-08-03T00:40:23;5.70;;;5.07;;
43841;SDS011;29495;49.970;20.842;2022-08-03T00:42:56;6.70;;;5.80;;
43841;SDS011;29495;49.970;20.842;2022-08-03T00:45:25;8.30;;;5.80;;
43841;SDS011;29495;49.970;20.842;2022-08-03T00:47:52;5.53;;;4.95;;
43841;SDS011;29495;49.970;20.842;2022-08-03T00:50:19;6.25;;;5.40;;
43841;SDS011;29495;49.970;20.842;2022-08-03T00:52:47;5.90;;;5.30;;
43841;SDS011;29495;49.970;20.842;2022-08-03T00:55:14;5.68;;;5.07;;
43841;SDS011;29495;49.970;20.842;2022-08-03T00:57:41;6.60;;;5.80;;
43841;SDS011;29495;49.970;20.842;2022-08-03T01:00:08;5.57;;;4.82;;
43841;SDS011;29495;49.970;20.842;2022-08-03T01:02:36;6.30;;;5.67;;
43841;SDS011;29495;49.970;20.842;2022-08-03T01:05:03;5.32;;;4.82;;
43841;SDS011;29495;49.970;20.842;2022-08-03T01:07:36;7.15;;;5.95;;
43841;SDS011;29495;49.970;20.842;2022-08-03T01:12:41;6.28;;;5.18;;
43841;SDS011;29495;49.970;20.842;2022-08-03T01:15:35;5.88;;;5.07;;
43841;SDS011;29495;49.970;20.842;2022-08-03T01:20:52;5.57;;;4.82;;
43841;SDS011;29495;49.970;20.842;2022-08-03T01:23:26;7.97;;;5.63;;
43841;SDS011;29495;49.970;20.842;2022-08-03T01:31:40;10.45;;;5.63;;
43841;SDS011;29495;49.970;20.842;2022-08-03T01:34:13;7.70;;;6.03;;
43841;SDS011;29495;49.970;20.842;2022-08-03T01:36:50;6.47;;;5.38;;
43841;SDS011;29495;49.970;20.842;2022-08-03T01:39:18;8.32;;;5.30;;
43841;SDS011;29495;49.970;20.842;2022-08-03T01:41:56;6.13;;;5.53;;
43841;SDS011;29495;49.970;20.842;2022-08-03T01:44:32;6.82;;;5.65;;
43841;SDS011;29495;49.970;20.842;2022-08-03T01:47:02;6.10;;;5.50;;
43841;SDS011;29495;49.970;20.842;2022-08-03T01:49:31;5.55;;;5.03;;
43841;SDS011;29495;49.970;20.842;2022-08-03T01:52:01;6.55;;;5.88;;
43841;SDS011;29495;49.970;20.842;2022-08-03T01:54:28;9.30;;;5.45;;
43841;SDS011;29495;49.970;20.842;2022-08-03T01:56:55;6.10;;;5.50;;
43841;SDS011;29495;49.970;20.842;2022-08-03T01:59:23;5.75;;;5.15;;
43841;SDS011;29495;49.970;20.842;2022-08-03T02:01:50;8.00;;;5.18;;
43841;SDS011;29495;49.970;20.842;2022-08-03T02:04:18;6.40;;;5.18;;
43841;SDS011;29495;49.970;20.842;2022-08-03T02:06:46;5.20;;;4.70;;
43841;SDS011;29495;49.970;20.842;2022-08-03T02:09:14;6.15;;;5.55;;
43841;SDS011;29495;49.970;20.842;2022-08-03T02:11:41;7.03;;;5.50;;
43841;SDS011;29495;49.970;20.842;2022-08-03T02:14:09;5.90;;;5.30;;
43841;SDS011;29495;49.970;20.842;2022-08-03T02:16:35;9.38;;;5.25;;
43841;SDS011;29495;49.970;20.842;2022-08-03T02:19:02;6.15;;;5.55;;
43841;SDS011;29495;49.970;20.842;2022-08-03T02:21:31;6.43;;;5.78;;
43841;SDS011;29495;49.970;20.842;2022-08-03T02:24:00;7.15;;;6.45;;
43841;SDS011;29495;49.970;20.842;2022-08-03T02:26:28;6.72;;;5.97;;
43841;SDS011;29495;49.970;20.842;2022-08-03T02:28:58;7.15;;;6.45;;
43841;SDS011;29495;49.970;20.842;2022-08-03T02:31:28;6.63;;;5.93;;
43841;SDS011;29495;49.970;20.842;2022-08-03T02:33:58;8.10;;;6.38;;
43841;SDS011;29495;49.970;20.842;2022-08-03T02:36:29;8.30;;;6.40;;
43841;SDS011;29495;49.970;20.842;2022-08-03T02:38:59;7.28;;;6.43;;
43841;SDS011;29495;49.970;20.842;2022-08-03T02:41:37;7.35;;;6.63;;
43841;SDS011;29495;49.970;20.842;2022-08-03T02:44:08;6.85;;;6.15;;
43841;SDS011;29495;49.970;20.842;2022-08-03T02:46:37;6.20;;;5.60;;
43841;SDS011;29495;49.970;20.842;2022-08-03T02:49:05;8.30;;;5.60;;
43841;SDS011;29495;49.970;20.842;2022-08-03T02:51:32;5.95;;;5.35;;
43841;SDS011;29495;49.970;20.842;2022-08-03T02:54:03;6.78;;;5.18;;
43841;SDS011;29495;49.970;20.842;2022-08-03T02:56:30;8.15;;;6.38;;
43841;SDS011;29495;49.970;20.842;2022-08-03T02:58:58;6.57;;;5.03;;
43841;SDS011;29495;49.970;20.842;2022-08-03T03:01:26;5.90;;;4.88;;
43841;SDS011;29495;49.970;20.842;2022-08-03T03:03:54;6.13;;;5.40;;
43841;SDS011;29495;49.970;20.842;2022-08-03T03:06:22;6.05;;;5.45;;
43841;SDS011;29495;49.970;20.842;2022-08-03T03:08:49;6.20;;;5.17;;
43841;SDS011;29495;49.970;20.842;2022-08-03T03:11:17;5.57;;;5.07;;
43841;SDS011;29495;49.970;20.842;2022-08-03T03:13:45;5.97;;;5.38;;
43841;SDS011;29495;49.970;20.842;2022-08-03T03:16:13;8.25;;;5.10;;
43841;SDS011;29495;49.970;20.842;2022-08-03T03:18:41;7.28;;;5.50;;
43841;SDS011;29495;49.970;20.842;2022-08-03T03:21:09;5.25;;;4.75;;
43841;SDS011;29495;49.970;20.842;2022-08-03T03:23:36;5.82;;;4.47;;
43841;SDS011;29495;49.970;20.842;2022-08-03T03:26:04;4.93;;;3.10;;
43841;SDS011;29495;49.970;20.842;2022-08-03T03:28:30;4.40;;;4.00;;
43841;SDS011;29495;49.970;20.842;2022-08-03T03:30:57;4.55;;;4.15;;
43841;SDS011;29495;49.970;20.842;2022-08-03T03:33:23;3.40;;;3.10;;
43841;SDS011;29495;49.970;20.842;2022-08-03T03:35:49;5.13;;;3.45;;
43841;SDS011;29495;49.970;20.842;2022-08-03T03:38:18;4.00;;;3.70;;
43841;SDS011;29495;49.970;20.842;2022-08-03T03:40:45;4.28;;;3.88;;
43841;SDS011;29495;49.970;20.842;2022-08-03T03:43:11;4.60;;;4.20;;
43841;SDS011;29495;49.970;20.842;2022-08-03T03:45:39;5.30;;;3.90;;
43841;SDS011;29495;49.970;20.842;2022-08-03T03:48:06;4.88;;;4.13;;
43841;SDS011;29495;49.970;20.842;2022-08-03T03:50:33;4.82;;;4.40;;
43841;SDS011;29495;49.970;20.842;2022-08-03T03:53:00;4.78;;;4.38;;
43841;SDS011;29495;49.970;20.842;2022-08-03T03:55:27;6.03;;;4.47;;
43841;SDS011;29495;49.970;20.842;2022-08-03T03:57:53;6.57;;;4.50;;
43841;SDS011;29495;49.970;20.842;2022-08-03T04:00:19;5.38;;;4.55;;
43841;SDS011;29495;49.970;20.842;2022-08-03T04:02:45;5.32;;;4.82;;
43841;SDS011;29495;49.970;20.842;2022-08-03T04:05:11;5.57;;;4.80;;
43841;SDS011;29495;49.970;20.842;2022-08-03T04:07:57;6.57;;;5.53;;
43841;SDS011;29495;49.970;20.842;2022-08-03T04:11:39;6.80;;;5.50;;
43841;SDS011;29495;49.970;20.842;2022-08-03T04:13:43;8.70;;;5.78;;
43841;SDS011;29495;49.970;20.842;2022-08-03T04:16:11;6.50;;;5.80;;
43841;SDS011;29495;49.970;20.842;2022-08-03T04:18:39;6.28;;;5.55;;
43841;SDS011;29495;49.970;20.842;2022-08-03T04:21:10;7.38;;;5.90;;
43841;SDS011;29495;49.970;20.842;2022-08-03T04:23:40;6.70;;;6.03;;
43841;SDS011;29495;49.970;20.842;2022-08-03T04:26:11;7.85;;;6.30;;
43841;SDS011;29495;49.970;20.842;2022-08-03T04:28:40;7.80;;;5.97;;
43841;SDS011;29495;49.970;20.842;2022-08-03T04:31:10;6.88;;;6.15;;
43841;SDS011;29495;49.970;20.842;2022-08-03T04:33:37;11.27;;;7.18;;
43841;SDS011;29495;49.970;20.842;2022-08-03T04:36:06;6.80;;;5.97;;
43841;SDS011;29495;49.970;20.842;2022-08-03T04:38:41;7.88;;;6.65;;
43841;SDS011;29495;49.970;20.842;2022-08-03T04:41:18;7.22;;;6.45;;
43841;SDS011;29495;49.970;20.842;2022-08-03T04:43:47;8.40;;;5.97;;
43841;SDS011;29495;49.970;20.842;2022-08-03T04:46:15;6.88;;;6.18;;
43841;SDS011;29495;49.970;20.842;2022-08-03T04:48:42;9.57;;;6.18;;
43841;SDS011;29495;49.970;20.842;2022-08-03T04:51:09;6.90;;;6.20;;
43841;SDS011;29495;49.970;20.842;2022-08-03T04:53:37;7.63;;;6.53;;
43841;SDS011;29495;49.970;20.842;2022-08-03T04:56:06;7.18;;;6.47;;
43841;SDS011;29495;49.970;20.842;2022-08-03T04:58:32;8.63;;;6.90;;
43841;SDS011;29495;49.970;20.842;2022-08-03T05:00:58;7.43;;;6.72;;
43841;SDS011;29495;49.970;20.842;2022-08-03T05:03:24;7.60;;;6.75;;
43841;SDS011;29495;49.970;20.842;2022-08-03T05:05:53;8.02;;;7.22;;
43841;SDS011;29495;49.970;20.842;2022-08-03T05:08:20;8.63;;;7.80;;
43841;SDS011;29495;49.970;20.842;2022-08-03T05:10:46;9.57;;;8.48;;
43841;SDS011;29495;49.970;20.842;2022-08-03T05:13:12;10.43;;;8.88;;
43841;SDS011;29495;49.970;20.842;2022-08-03T05:15:38;10.23;;;8.63;;
43841;SDS011;29495;49.970;20.842;2022-08-03T05:18:04;9.52;;;8.38;;
43841;SDS011;29495;49.970;20.842;2022-08-03T05:20:30;9.63;;;8.20;;
43841;SDS011;29495;49.970;20.842;2022-08-03T05:22:57;8.88;;;7.97;;
43841;SDS011;29495;49.970;20.842;2022-08-03T05:25:25;9.52;;;8.63;;
43841;SDS011;29495;49.970;20.842;2022-08-03T05:27:51;8.30;;;7.03;;
43841;SDS011;29495;49.970;20.842;2022-08-03T05:30:17;8.05;;;7.25;;
43841;SDS011;29495;49.970;20.842;2022-08-03T05:32:43;7.80;;;7.00;;
43841;SDS011;29495;49.970;20.842;2022-08-03T05:35:09;7.57;;;6.55;;
43841;SDS011;29495;49.970;20.842;2022-08-03T05:37:34;7.28;;;6.50;;
43841;SDS011;29495;49.970;20.842;2022-08-03T05:40:01;8.70;;;6.45;;
43841;SDS011;29495;49.970;20.842;2022-08-03T05:42:28;6.55;;;5.53;;
43841;SDS011;29495;49.970;20.842;2022-08-03T05:44:54;6.50;;;5.90;;
43841;SDS011;29495;49.970;20.842;2022-08-03T05:47:19;4.78;;;4.38;;
43841;SDS011;29495;49.970;20.842;2022-08-03T05:49:45;7.45;;;5.25;;
43841;SDS011;29495;49.970;20.842;2022-08-03T05:52:11;5.82;;;5.22;;
43841;SDS011;29495;49.970;20.842;2022-08-03T05:54:37;5.57;;;5.00;;
43841;SDS011;29495;49.970;20.842;2022-08-03T05:57:03;5.65;;;5.03;;
43841;SDS011;29495;49.970;20.842;2022-08-03T05:59:29;6.20;;;4.97;;
43841;SDS011;29495;49.970;20.842;2022-08-03T06:01:55;5.22;;;4.68;;
43841;SDS011;29495;49.970;20.842;2022-08-03T06:04:21;4.65;;;4.25;;
43841;SDS011;29495;49.970;20.842;2022-08-03T06:06:47;4.70;;;4.30;;
43841;SDS011;29495;49.970;20.842;2022-08-03T06:09:15;4.72;;;4.32;;
43841;SDS011;29495;49.970;20.842;2022-08-03T06:11:41;6.20;;;4.87;;
43841;SDS011;29495;49.970;20.842;2022-08-03T06:14:07;4.60;;;4.07;;
43841;SDS011;29495;49.970;20.842;2022-08-03T06:16:33;4.93;;;4.53;;
43841;SDS011;29495;49.970;20.842;2022-08-03T06:18:59;5.75;;;5.18;;
43841;SDS011;29495;49.970;20.842;2022-08-03T06:21:25;4.60;;;4.10;;
43841;SDS011;29495;49.970;20.842;2022-08-03T06:23:51;5.22;;;4.75;;
43841;SDS011;29495;49.970;20.842;2022-08-03T06:26:17;6.00;;;5.40;;
43841;SDS011;29495;49.970;20.842;2022-08-03T06:28:44;5.55;;;4.50;;
43841;SDS011;29495;49.970;20.842;2022-08-03T06:31:10;7.05;;;4.50;;
43841;SDS011;29495;49.970;20.842;2022-08-03T06:33:36;5.32;;;4.32;;
43841;SDS011;29495;49.970;20.842;2022-08-03T06:36:02;4.18;;;3.78;;
43841;SDS011;29495;49.970;20.842;2022-08-03T06:38:28;4.45;;;4.05;;
43841;SDS011;29495;49.970;20.842;2022-08-03T06:40:54;7.40;;;4.97;;
43841;SDS011;29495;49.970;20.842;2022-08-03T06:43:20;5.18;;;4.68;;
43841;SDS011;29495;49.970;20.842;2022-08-03T06:45:46;4.70;;;4.30;;
43841;SDS011;29495;49.970;20.842;2022-08-03T06:48:12;4.82;;;4.40;;
43841;SDS011;29495;49.970;20.842;2022-08-03T06:50:39;4.88;;;4.03;;
43841;SDS011;29495;49.970;20.842;2022-08-03T06:53:06;4.63;;;4.15;;
43841;SDS011;29495;49.970;20.842;2022-08-03T06:55:35;4.53;;;4.07;;
43841;SDS011;29495;49.970;20.842;2022-08-03T06:58:01;5.55;;;5.00;;
43841;SDS011;29495;49.970;20.842;2022-08-03T07:00:27;5.70;;;5.18;;
43841;SDS011;29495;49.970;20.842;2022-08-03T07:02:55;4.90;;;4.43;;
43841;SDS011;29495;49.970;20.842;2022-08-03T07:05:20;5.13;;;4.63;;
43841;SDS011;29495;49.970;20.842;2022-08-03T07:07:47;6.40;;;5.35;;
43841;SDS011;29495;49.970;20.842;2022-08-03T07:10:13;5.47;;;4.97;;
43841;SDS011;29495;49.970;20.842;2022-08-03T07:12:39;5.03;;;4.63;;
43841;SDS011;29495;49.970;20.842;2022-08-03T07:15:06;5.63;;;4.32;;
43841;SDS011;29495;49.970;20.842;2022-08-03T07:17:33;5.00;;;4.55;;
43841;SDS011;29495;49.970;20.842;2022-08-03T07:20:00;5.13;;;4.63;;
43841;SDS011;29495;49.970;20.842;2022-08-03T07:22:28;4.90;;;4.50;;
43841;SDS011;29495;49.970;20.842;2022-08-03T07:24:54;5.30;;;4.80;;
43841;SDS011;29495;49.970;20.842;2022-08-03T07:27:21;5.65;;;4.72;;
43841;SDS011;29495;49.970;20.842;2022-08-03T07:29:46;5.65;;;5.10;;
43841;SDS011;29495;49.970;20.842;2022-08-03T07:32:12;5.03;;;4.63;;
43841;SDS011;29495;49.970;20.842;2022-08-03T07:34:38;5.22;;;4.75;;
43841;SDS011;29495;49.970;20.842;2022-08-03T07:37:04;5.40;;;4.82;;
43841;SDS011;29495;49.970;20.842;2022-08-03T07:39:30;5.25;;;4.75;;
43841;SDS011;29495;49.970;20.842;2022-08-03T07:41:56;5.70;;;4.70;;
43841;SDS011;29495;49.970;20.842;2022-08-03T07:44:22;5.70;;;5.20;;
43841;SDS011;29495;49.970;20.842;2022-08-03T07:46:47;6.18;;;5.57;;
43841;SDS011;29495;49.970;20.842;2022-08-03T07:49:15;5.75;;;5.20;;
43841;SDS011;29495;49.970;20.842;2022-08-03T07:51:41;5.63;;;5.13;;
43841;SDS011;29495;49.970;20.842;2022-08-03T07:54:07;5.70;;;5.20;;
43841;SDS011;29495;49.970;20.842;2022-08-03T07:56:34;5.63;;;5.13;;
43841;SDS011;29495;49.970;20.842;2022-08-03T07:59:01;8.10;;;7.28;;
43841;SDS011;29495;49.970;20.842;2022-08-03T08:01:27;7.28;;;6.57;;
43841;SDS011;29495;49.970;20.842;2022-08-03T08:03:54;5.93;;;5.38;;
43841;SDS011;29495;49.970;20.842;2022-08-03T08:06:20;7.55;;;5.88;;
43841;SDS011;29495;49.970;20.842;2022-08-03T08:08:46;8.13;;;7.32;;
43841;SDS011;29495;49.970;20.842;2022-08-03T08:11:12;7.60;;;6.90;;
43841;SDS011;29495;49.970;20.842;2022-08-03T08:13:38;7.70;;;6.95;;
43841;SDS011;29495;49.970;20.842;2022-08-03T08:16:04;7.38;;;6.70;;
43841;SDS011;29495;49.970;20.842;2022-08-03T08:18:30;7.13;;;6.43;;
43841;SDS011;29495;49.970;20.842;2022-08-03T08:20:57;7.00;;;6.30;;
43841;SDS011;29495;49.970;20.842;2022-08-03T08:23:22;6.30;;;5.72;;
43841;SDS011;29495;49.970;20.842;2022-08-03T08:25:52;7.85;;;6.70;;
43841;SDS011;29495;49.970;20.842;2022-08-03T08:28:18;6.63;;;5.97;;
43841;SDS011;29495;49.970;20.842;2022-08-03T08:30:46;6.03;;;5.47;;
43841;SDS011;29495;49.970;20.842;2022-08-03T08:33:12;6.28;;;5.68;;
43841;SDS011;29495;49.970;20.842;2022-08-03T08:35:38;6.68;;;6.07;;
43841;SDS011;29495;49.970;20.842;2022-08-03T08:38:05;6.18;;;5.57;;
43841;SDS011;29495;49.970;20.842;2022-08-03T08:40:31;5.78;;;5.18;;
43841;SDS011;29495;49.970;20.842;2022-08-03T08:42:57;6.95;;;6.35;;
43841;SDS011;29495;49.970;20.842;2022-08-03T08:45:23;6.78;;;6.18;;
43841;SDS011;29495;49.970;20.842;2022-08-03T08:47:49;6.22;;;5.63;;
43841;SDS011;29495;49.970;20.842;2022-08-03T08:50:18;6.22;;;5.63;;
43841;SDS011;29495;49.970;20.842;2022-08-03T08:52:47;5.60;;;5.10;;
43841;SDS011;29495;49.970;20.842;2022-08-03T08:55:17;6.35;;;5.72;;
43841;SDS011;29495;49.970;20.842;2022-08-03T08:57:56;5.57;;;5.07;;
43841;SDS011;29495;49.970;20.842;2022-08-03T09:00:26;5.97;;;5.47;;
43841;SDS011;29495;49.970;20.842;2022-08-03T09:02:52;5.28;;;4.78;;
43841;SDS011;29495;49.970;20.842;2022-08-03T09:05:18;5.90;;;5.32;;
43841;SDS011;29495;49.970;20.842;2022-08-03T09:07:46;5.75;;;5.25;;
43841;SDS011;29495;49.970;20.842;2022-08-03T09:10:13;6.97;;;6.22;;
43841;SDS011;29495;49.970;20.842;2022-08-03T09:12:49;4.45;;;4.05;;
43841;SDS011;29495;49.970;20.842;2022-08-03T09:17:46;4.28;;;3.92;;
43841;SDS011;29495;49.970;20.842;2022-08-03T09:20:12;3.97;;;3.67;;
43841;SDS011;29495;49.970;20.842;2022-08-03T09:25:25;4.75;;;4.35;;
43841;SDS011;29495;49.970;20.842;2022-08-03T09:28:32;5.97;;;5.32;;
43841;SDS011;29495;49.970;20.842;2022-08-03T09:30:57;5.43;;;4.93;;
43841;SDS011;29495;49.970;20.842;2022-08-03T09:33:24;5.00;;;4.60;;
43841;SDS011;29495;49.970;20.842;2022-08-03T09:35:50;5.50;;;5.00;;
43841;SDS011;29495;49.970;20.842;2022-08-03T09:38:17;4.68;;;4.32;;
43841;SDS011;29495;49.970;20.842;2022-08-03T09:40:48;5.35;;;4.85;;
43841;SDS011;29495;49.970;20.842;2022-08-03T09:43:15;5.10;;;4.70;;
43841;SDS011;29495;49.970;20.842;2022-08-03T09:45:41;4.88;;;4.38;;
43841;SDS011;29495;49.970;20.842;2022-08-03T09:48:28;6.20;;;5.03;;
43841;SDS011;29495;49.970;20.842;2022-08-03T09:50:55;5.43;;;4.95;;
43841;SDS011;29495;49.970;20.842;2022-08-03T09:53:26;5.20;;;4.80;;
43841;SDS011;29495;49.970;20.842;2022-08-03T09:55:52;5.68;;;4.97;;
43841;SDS011;29495;49.970;20.842;2022-08-03T09:58:23;5.03;;;4.28;;
43841;SDS011;29495;49.970;20.842;2022-08-03T10:00:53;3.70;;;3.40;;
43841;SDS011;29495;49.970;20.842;2022-08-03T10:03:21;4.45;;;4.05;;
43841;SDS011;29495;49.970;20.842;2022-08-03T10:05:48;4.68;;;4.28;;
43841;SDS011;29495;49.970;20.842;2022-08-03T10:08:14;4.57;;;4.18;;
43841;SDS011;29495;49.970;20.842;2022-08-03T10:10:43;5.07;;;4.57;;
43841;SDS011;29495;49.970;20.842;2022-08-03T10:13:12;5.22;;;4.72;;
43841;SDS011;29495;49.970;20.842;2022-08-03T10:15:40;5.72;;;4.85;;
43841;SDS011;29495;49.970;20.842;2022-08-03T10:18:06;5.35;;;4.95;;
43841;SDS011;29495;49.970;20.842;2022-08-03T10:20:36;5.25;;;3.55;;
43841;SDS011;29495;49.970;20.842;2022-08-03T10:23:04;4.75;;;4.25;;
43841;SDS011;29495;49.970;20.842;2022-08-03T10:25:33;4.38;;;3.97;;
43841;SDS011;29495;49.970;20.842;2022-08-03T10:30:29;4.00;;;3.70;;
43841;SDS011;29495;49.970;20.842;2022-08-03T10:33:12;4.33;;;3.93;;
43841;SDS011;29495;49.970;20.842;2022-08-03T10:35:42;4.95;;;4.35;;
43841;SDS011;29495;49.970;20.842;2022-08-03T10:38:15;4.80;;;3.78;;
43841;SDS011;29495;49.970;20.842;2022-08-03T10:40:44;4.45;;;3.50;;
43841;SDS011;29495;49.970;20.842;2022-08-03T10:43:11;3.40;;;3.15;;
43841;SDS011;29495;49.970;20.842;2022-08-03T10:45:46;3.10;;;2.80;;
43841;SDS011;29495;49.970;20.842;2022-08-03T10:48:12;3.53;;;3.22;;
43841;SDS011;29495;49.970;20.842;2022-08-03T10:50:38;3.30;;;3.00;;
43841;SDS011;29495;49.970;20.842;2022-08-03T10:53:07;3.38;;;3.08;;
43841;SDS011;29495;49.970;20.842;2022-08-03T10:55:34;3.55;;;3.22;;
43841;SDS011;29495;49.970;20.842;2022-08-03T11:01:02;3.38;;;3.08;;
43841;SDS011;29495;49.970;20.842;2022-08-03T11:03:32;3.50;;;3.20;;
43841;SDS011;29495;49.970;20.842;2022-08-03T11:06:15;4.38;;;3.65;;
43841;SDS011;29495;49.970;20.842;2022-08-03T11:08:45;4.63;;;3.95;;
43841;SDS011;29495;49.970;20.842;2022-08-03T11:13:57;4.70;;;4.30;;
43841;SDS011;29495;49.970;20.842;2022-08-03T11:16:35;5.03;;;4.63;;
43841;SDS011;29495;49.970;20.842;2022-08-03T11:35:13;3.88;;;3.13;;
43841;SDS011;29495;49.970;20.842;2022-08-03T11:43:10;2.72;;;2.53;;
43841;SDS011;29495;49.970;20.842;2022-08-03T11:46:07;3.40;;;3.10;;
43841;SDS011;29495;49.970;20.842;2022-08-03T11:48:49;5.43;;;3.40;;
43841;SDS011;29495;49.970;20.842;2022-08-03T11:51:26;3.70;;;3.00;;
43841;SDS011;29495;49.970;20.842;2022-08-03T11:53:57;4.63;;;4.22;;
43841;SDS011;29495;49.970;20.842;2022-08-03T11:56:24;8.00;;;5.75;;
43841;SDS011;29495;49.970;20.842;2022-08-03T11:58:51;7.80;;;6.25;;
43841;SDS011;29495;49.970;20.842;2022-08-03T12:01:20;8.10;;;7.30;;
43841;SDS011;29495;49.970;20.842;2022-08-03T12:03:46;6.82;;;6.13;;
43841;SDS011;29495;49.970;20.842;2022-08-03T12:06:14;6.07;;;5.57;;
43841;SDS011;29495;49.970;20.842;2022-08-03T12:08:41;6.37;;;5.87;;
43841;SDS011;29495;49.970;20.842;2022-08-03T12:11:09;8.02;;;7.28;;
43841;SDS011;29495;49.970;20.842;2022-08-03T12:16:05;5.72;;;5.20;;
43841;SDS011;29495;49.970;20.842;2022-08-03T12:18:31;6.82;;;6.22;;
43841;SDS011;29495;49.970;20.842;2022-08-03T12:21:05;5.82;;;4.82;;
43841;SDS011;29495;49.970;20.842;2022-08-03T12:23:33;4.30;;;3.90;;
43841;SDS011;29495;49.970;20.842;2022-08-03T12:26:01;5.05;;;4.35;;
43841;SDS011;29495;49.970;20.842;2022-08-03T12:28:32;5.32;;;4.93;;
43841;SDS011;29495;49.970;20.842;2022-08-03T12:31:02;5.90;;;5.40;;
43841;SDS011;29495;49.970;20.842;2022-08-03T12:36:27;5.10;;;4.70;;
43841;SDS011;29495;49.970;20.842;2022-08-03T12:39:02;6.00;;;5.40;;
43841;SDS011;29495;49.970;20.842;2022-08-03T12:41:34;5.82;;;5.32;;
43841;SDS011;29495;49.970;20.842;2022-08-03T12:46:29;5.53;;;5.03;;
43841;SDS011;29495;49.970;20.842;2022-08-03T12:49:04;4.82;;;4.32;;
43841;SDS011;29495;49.970;20.842;2022-08-03T12:51:34;4.90;;;4.40;;
43841;SDS011;29495;49.970;20.842;2022-08-03T12:54:00;4.85;;;4.00;;
43841;SDS011;29495;49.970;20.842;2022-08-03T12:56:27;4.75;;;4.35;;
43841;SDS011;29495;49.970;20.842;2022-08-03T12:58:53;4.60;;;4.22;;
43841;SDS011;29495;49.970;20.842;2022-08-03T13:01:19;6.30;;;5.70;;
43841;SDS011;29495;49.970;20.842;2022-08-03T13:03:49;4.28;;;3.92;;
43841;SDS011;29495;49.970;20.842;2022-08-03T13:06:17;4.25;;;3.95;;
43841;SDS011;29495;49.970;20.842;2022-08-03T13:08:47;4.93;;;3.22;;
43841;SDS011;29495;49.970;20.842;2022-08-03T13:11:23;4.40;;;4.00;;
43841;SDS011;29495;49.970;20.842;2022-08-03T13:13:51;4.68;;;3.33;;
43841;SDS011;29495;49.970;20.842;2022-08-03T13:16:18;5.90;;;4.70;;
43841;SDS011;29495;49.970;20.842;2022-08-03T13:18:46;3.88;;;3.40;;
43841;SDS011;29495;49.970;20.842;2022-08-03T13:21:14;3.50;;;3.20;;
43841;SDS011;29495;49.970;20.842;2022-08-03T13:23:41;4.32;;;3.88;;
43841;SDS011;29495;49.970;20.842;2022-08-03T13:26:07;3.97;;;3.58;;
43841;SDS011;29495;49.970;20.842;2022-08-03T13:28:34;3.90;;;3.60;;
43841;SDS011;29495;49.970;20.842;2022-08-03T13:31:00;3.78;;;3.25;;
43841;SDS011;29495;49.970;20.842;2022-08-03T13:33:26;3.42;;;3.08;;
43841;SDS011;29495;49.970;20.842;2022-08-03T13:35:53;3.10;;;2.80;;
43841;SDS011;29495;49.970;20.842;2022-08-03T13:38:19;3.28;;;2.97;;
43841;SDS011;29495;49.970;20.842;2022-08-03T13:40:45;4.78;;;4.25;;
43841;SDS011;29495;49.970;20.842;2022-08-03T13:43:11;4.50;;;3.75;;
43841;SDS011;29495;49.970;20.842;2022-08-03T13:45:37;3.60;;;3.30;;
43841;SDS011;29495;49.970;20.842;2022-08-03T13:48:03;3.20;;;3.00;;
43841;SDS011;29495;49.970;20.842;2022-08-03T13:50:30;4.03;;;3.47;;
43841;SDS011;29495;49.970;20.842;2022-08-03T13:52:56;3.85;;;3.53;;
43841;SDS011;29495;49.970;20.842;2022-08-03T13:55:22;4.50;;;3.17;;
43841;SDS011;29495;49.970;20.842;2022-08-03T13:57:48;3.95;;;3.65;;
43841;SDS011;29495;49.970;20.842;2022-08-03T14:00:14;3.65;;;3.35;;
43841;SDS011;29495;49.970;20.842;2022-08-03T14:02:42;3.75;;;3.45;;
43841;SDS011;29495;49.970;20.842;2022-08-03T14:05:08;3.25;;;2.95;;
43841;SDS011;29495;49.970;20.842;2022-08-03T14:07:34;3.40;;;3.10;;
43841;SDS011;29495;49.970;20.842;2022-08-03T14:09:59;3.25;;;2.70;;
43841;SDS011;29495;49.970;20.842;2022-08-03T14:12:26;2.72;;;2.53;;
43841;SDS011;29495;49.970;20.842;2022-08-03T14:14:52;2.72;;;2.53;;
43841;SDS011;29495;49.970;20.842;2022-08-03T14:17:18;2.33;;;2.13;;
43841;SDS011;29495;49.970;20.842;2022-08-03T14:19:44;3.35;;;3.05;;
43841;SDS011;29495;49.970;20.842;2022-08-03T14:22:10;3.13;;;2.83;;
43841;SDS011;29495;49.970;20.842;2022-08-03T14:24:36;2.92;;;2.72;;
43841;SDS011;29495;49.970;20.842;2022-08-03T14:27:02;2.72;;;2.53;;
43841;SDS011;29495;49.970;20.842;2022-08-03T14:29:29;3.42;;;2.55;;
43841;SDS011;29495;49.970;20.842;2022-08-03T14:31:55;3.58;;;3.28;;
43841;SDS011;29495;49.970;20.842;2022-08-03T14:34:21;3.95;;;3.00;;
43841;SDS011;29495;49.970;20.842;2022-08-03T14:36:47;2.95;;;2.75;;
43841;SDS011;29495;49.970;20.842;2022-08-03T14:39:13;2.90;;;2.70;;
43841;SDS011;29495;49.970;20.842;2022-08-03T14:41:39;2.58;;;2.38;;
43841;SDS011;29495;49.970;20.842;2022-08-03T14:44:04;2.80;;;2.60;;
43841;SDS011;29495;49.970;20.842;2022-08-03T14:46:30;2.50;;;2.30;;
43841;SDS011;29495;49.970;20.842;2022-08-03T14:48:56;2.60;;;2.40;;
43841;SDS011;29495;49.970;20.842;2022-08-03T14:51:23;2.50;;;2.30;;
43841;SDS011;29495;49.970;20.842;2022-08-03T14:53:49;3.63;;;2.92;;
43841;SDS011;29495;49.970;20.842;2022-08-03T14:56:15;2.65;;;2.45;;
43841;SDS011;29495;49.970;20.842;2022-08-03T14:58:42;4.05;;;2.35;;
43841;SDS011;29495;49.970;20.842;2022-08-03T15:01:16;3.00;;;2.70;;
43841;SDS011;29495;49.970;20.842;2022-08-03T15:03:42;2.50;;;2.30;;
43841;SDS011;29495;49.970;20.842;2022-08-03T15:06:08;3.17;;;2.67;;
43841;SDS011;29495;49.970;20.842;2022-08-03T15:08:34;2.53;;;2.33;;
43841;SDS011;29495;49.970;20.842;2022-08-03T15:10:59;2.60;;;2.40;;
43841;SDS011;29495;49.970;20.842;2022-08-03T15:13:25;2.90;;;2.70;;
43841;SDS011;29495;49.970;20.842;2022-08-03T15:15:52;2.30;;;2.08;;
43841;SDS011;29495;49.970;20.842;2022-08-03T15:18:17;1.98;;;1.85;;
43841;SDS011;29495;49.970;20.842;2022-08-03T15:20:44;2.42;;;2.13;;
43841;SDS011;29495;49.970;20.842;2022-08-03T15:23:11;2.22;;;2.03;;
43841;SDS011;29495;49.970;20.842;2022-08-03T15:25:38;2.57;;;2.20;;
43841;SDS011;29495;49.970;20.842;2022-08-03T15:28:04;2.50;;;1.83;;
43841;SDS011;29495;49.970;20.842;2022-08-03T15:30:30;2.13;;;1.92;;
43841;SDS011;29495;49.970;20.842;2022-08-03T15:33:00;1.60;;;1.50;;